sensor_id;sensor_type;location;lat;lon;timestamp;pressure;altitude;pressure_sealevel;temperature;humidity
20909;BME280;10614;53.198;6.570;2023-07-31T00:01:03;100746.00;;;16.54;100.00
20909;BME280;10614;53.198;6.570;2023-07-31T00:03:05;100743.88;;;16.46;100.00
20909;BME280;10614;53.198;6.570;2023-07-31T00:05:08;100754.91;;;16.53;100.00
20909;BME280;10614;53.198;6.570;2023-07-31T00:07:10;100756.84;;;16.51;100.00
20909;BME280;10614;53.198;6.570;2023-07-31T00:09:11;100763.00;;;16.51;100.00
20909;BME280;10614;53.198;6.570;2023-07-31T00:11:15;100729.59;;;16.34;100.00
20909;BME280;10614;53.198;6.570;2023-07-31T00:13:17;100732.34;;;16.33;100.00
20909;BME280;10614;53.198;6.570;2023-07-31T00:15:19;100746.41;;;16.48;100.00
20909;BME280;10614;53.198;6.570;2023-07-31T00:17:21;100721.94;;;16.30;100.00
20909;BME280;10614;53.198;6.570;2023-07-31T00:19:23;100727.03;;;16.33;100.00
20909;BME280;10614;53.198;6.570;2023-07-31T00:21:24;100745.94;;;16.41;100.00
20909;BME280;10614;53.198;6.570;2023-07-31T00:23:26;100736.38;;;16.38;100.00
20909;BME280;10614;53.198;6.570;2023-07-31T00:25:29;100739.16;;;16.37;100.00
20909;BME280;10614;53.198;6.570;2023-07-31T00:27:32;100710.31;;;16.18;100.00
20909;BME280;10614;53.198;6.570;2023-07-31T00:29:34;100735.00;;;16.33;100.00
20909;BME280;10614;53.198;6.570;2023-07-31T00:31:36;100739.63;;;16.29;100.00
20909;BME280;10614;53.198;6.570;2023-07-31T00:33:38;100726.25;;;16.18;100.00
20909;BME280;10614;53.198;6.570;2023-07-31T00:35:40;100721.31;;;16.12;100.00
20909;BME280;10614;53.198;6.570;2023-07-31T00:37:41;100714.50;;;16.08;100.00
20909;BME280;10614;53.198;6.570;2023-07-31T00:39:43;100749.09;;;16.20;100.00
20909;BME280;10614;53.198;6.570;2023-07-31T00:41:44;100720.00;;;16.04;100.00
20909;BME280;10614;53.198;6.570;2023-07-31T00:43:47;100705.31;;;15.99;100.00
20909;BME280;10614;53.198;6.570;2023-07-31T00:45:49;100713.28;;;15.99;100.00
20909;BME280;10614;53.198;6.570;2023-07-31T00:47:51;100729.50;;;16.09;100.00
20909;BME280;10614;53.198;6.570;2023-07-31T00:49:54;100730.16;;;15.98;100.00
20909;BME280;10614;53.198;6.570;2023-07-31T00:51:56;100710.28;;;15.91;100.00
20909;BME280;10614;53.198;6.570;2023-07-31T00:53:59;100706.41;;;15.82;100.00
20909;BME280;10614;53.198;6.570;2023-07-31T00:56:00;100713.53;;;15.81;100.00
20909;BME280;10614;53.198;6.570;2023-07-31T00:58:02;100720.22;;;15.87;100.00
20909;BME280;10614;53.198;6.570;2023-07-31T01:00:07;100716.19;;;15.81;100.00
20909;BME280;10614;53.198;6.570;2023-07-31T01:02:10;100716.25;;;15.66;100.00
20909;BME280;10614;53.198;6.570;2023-07-31T01:04:12;100710.59;;;15.57;100.00
20909;BME280;10614;53.198;6.570;2023-07-31T01:06:22;100711.53;;;15.56;100.00
20909;BME280;10614;53.198;6.570;2023-07-31T01:08:30;100686.16;;;15.38;100.00
20909;BME280;10614;53.198;6.570;2023-07-31T01:10:38;100721.22;;;15.57;100.00
20909;BME280;10614;53.198;6.570;2023-07-31T01:12:45;100718.00;;;15.52;100.00
20909;BME280;10614;53.198;6.570;2023-07-31T01:15:03;100715.34;;;15.52;100.00
20909;BME280;10614;53.198;6.570;2023-07-31T01:17:06;100720.94;;;15.48;100.00
20909;BME280;10614;53.198;6.570;2023-07-31T01:19:09;100715.16;;;15.41;100.00
20909;BME280;10614;53.198;6.570;2023-07-31T01:21:22;100699.53;;;15.36;100.00
20909;BME280;10614;53.198;6.570;2023-07-31T01:23:51;100706.25;;;15.28;100.00
20909;BME280;10614;53.198;6.570;2023-07-31T01:26:04;100721.41;;;15.26;100.00
20909;BME280;10614;53.198;6.570;2023-07-31T01:28:11;100667.06;;;14.90;100.00
20909;BME280;10614;53.198;6.570;2023-07-31T01:30:16;100708.34;;;15.08;100.00
20909;BME280;10614;53.198;6.570;2023-07-31T01:32:21;100696.50;;;14.99;100.00
20909;BME280;10614;53.198;6.570;2023-07-31T01:34:24;100705.84;;;15.05;100.00
20909;BME280;10614;53.198;6.570;2023-07-31T01:36:28;100687.28;;;14.91;100.00
20909;BME280;10614;53.198;6.570;2023-07-31T01:38:32;100713.38;;;15.13;100.00
20909;BME280;10614;53.198;6.570;2023-07-31T01:40:34;100665.16;;;14.92;100.00
20909;BME280;10614;53.198;6.570;2023-07-31T01:42:37;100684.00;;;15.02;100.00
20909;BME280;10614;53.198;6.570;2023-07-31T01:44:39;100702.47;;;15.17;100.00
20909;BME280;10614;53.198;6.570;2023-07-31T01:46:41;100664.97;;;14.95;100.00
20909;BME280;10614;53.198;6.570;2023-07-31T01:48:43;100660.91;;;14.89;100.00
20909;BME280;10614;53.198;6.570;2023-07-31T01:50:45;100672.63;;;14.99;100.00
20909;BME280;10614;53.198;6.570;2023-07-31T01:52:47;100663.34;;;14.92;100.00
20909;BME280;10614;53.198;6.570;2023-07-31T01:54:49;100661.75;;;14.90;100.00
20909;BME280;10614;53.198;6.570;2023-07-31T01:56:51;100636.66;;;14.81;100.00
20909;BME280;10614;53.198;6.570;2023-07-31T01:58:54;100671.09;;;14.95;100.00
20909;BME280;10614;53.198;6.570;2023-07-31T02:00:56;100642.44;;;14.88;100.00
20909;BME280;10614;53.198;6.570;2023-07-31T02:02:59;100661.06;;;15.01;100.00
20909;BME280;10614;53.198;6.570;2023-07-31T02:05:01;100641.31;;;14.92;100.00
20909;BME280;10614;53.198;6.570;2023-07-31T02:07:03;100682.41;;;15.13;100.00
20909;BME280;10614;53.198;6.570;2023-07-31T02:09:05;100679.66;;;15.15;100.00
20909;BME280;10614;53.198;6.570;2023-07-31T02:11:07;100648.22;;;14.94;100.00
20909;BME280;10614;53.198;6.570;2023-07-31T02:13:09;100662.50;;;15.06;100.00
20909;BME280;10614;53.198;6.570;2023-07-31T02:15:12;100661.66;;;15.06;100.00
20909;BME280;10614;53.198;6.570;2023-07-31T02:17:15;100618.19;;;14.80;100.00
20909;BME280;10614;53.198;6.570;2023-07-31T02:19:17;100641.13;;;14.95;100.00
20909;BME280;10614;53.198;6.570;2023-07-31T02:21:19;100642.72;;;14.97;100.00
20909;BME280;10614;53.198;6.570;2023-07-31T02:23:20;100621.91;;;14.91;100.00
20909;BME280;10614;53.198;6.570;2023-07-31T02:25:22;100637.97;;;15.03;100.00
20909;BME280;10614;53.198;6.570;2023-07-31T02:27:24;100618.59;;;14.88;100.00
20909;BME280;10614;53.198;6.570;2023-07-31T02:29:28;100650.66;;;15.12;100.00
20909;BME280;10614;53.198;6.570;2023-07-31T02:31:30;100615.84;;;14.89;100.00
20909;BME280;10614;53.198;6.570;2023-07-31T02:33:32;100659.38;;;15.14;100.00
20909;BME280;10614;53.198;6.570;2023-07-31T02:35:34;100617.53;;;14.90;100.00
20909;BME280;10614;53.198;6.570;2023-07-31T02:37:38;100637.63;;;15.09;100.00
20909;BME280;10614;53.198;6.570;2023-07-31T02:39:39;100656.34;;;15.20;100.00
20909;BME280;10614;53.198;6.570;2023-07-31T02:41:41;100647.66;;;15.18;100.00
20909;BME280;10614;53.198;6.570;2023-07-31T02:43:43;100613.19;;;15.04;100.00
20909;BME280;10614;53.198;6.570;2023-07-31T02:45:45;100644.72;;;15.23;100.00
20909;BME280;10614;53.198;6.570;2023-07-31T02:47:48;100647.44;;;15.21;100.00
20909;BME280;10614;53.198;6.570;2023-07-31T02:49:53;100644.63;;;15.24;100.00
20909;BME280;10614;53.198;6.570;2023-07-31T02:51:57;100641.84;;;15.26;100.00
20909;BME280;10614;53.198;6.570;2023-07-31T02:53:59;100643.66;;;15.25;100.00
20909;BME280;10614;53.198;6.570;2023-07-31T02:56:01;100635.91;;;15.22;100.00
20909;BME280;10614;53.198;6.570;2023-07-31T02:58:04;100634.75;;;15.26;100.00
20909;BME280;10614;53.198;6.570;2023-07-31T03:00:07;100630.31;;;15.27;100.00
20909;BME280;10614;53.198;6.570;2023-07-31T03:02:09;100630.13;;;15.30;100.00
20909;BME280;10614;53.198;6.570;2023-07-31T03:04:13;100630.13;;;15.30;100.00
20909;BME280;10614;53.198;6.570;2023-07-31T03:06:14;100629.16;;;15.31;100.00
20909;BME280;10614;53.198;6.570;2023-07-31T03:08:17;100628.31;;;15.30;100.00
20909;BME280;10614;53.198;6.570;2023-07-31T03:10:18;100623.84;;;15.31;100.00
20909;BME280;10614;53.198;6.570;2023-07-31T03:12:20;100627.38;;;15.31;100.00
20909;BME280;10614;53.198;6.570;2023-07-31T03:14:21;100623.09;;;15.29;100.00
20909;BME280;10614;53.198;6.570;2023-07-31T03:16:23;100619.50;;;15.30;100.00
20909;BME280;10614;53.198;6.570;2023-07-31T03:18:24;100626.31;;;15.34;100.00
20909;BME280;10614;53.198;6.570;2023-07-31T03:20:27;100632.47;;;15.34;100.00
20909;BME280;10614;53.198;6.570;2023-07-31T03:22:28;100617.50;;;15.33;100.00
20909;BME280;10614;53.198;6.570;2023-07-31T03:24:30;100620.44;;;15.29;100.00
20909;BME280;10614;53.198;6.570;2023-07-31T03:26:32;100631.81;;;15.31;100.00
20909;BME280;10614;53.198;6.570;2023-07-31T03:28:34;100631.91;;;15.29;100.00
20909;BME280;10614;53.198;6.570;2023-07-31T03:30:36;100619.88;;;15.24;100.00
20909;BME280;10614;53.198;6.570;2023-07-31T03:32:38;100630.50;;;15.24;100.00
20909;BME280;10614;53.198;6.570;2023-07-31T03:34:41;100632.75;;;15.30;100.00
20909;BME280;10614;53.198;6.570;2023-07-31T03:36:44;100627.47;;;15.30;100.00
20909;BME280;10614;53.198;6.570;2023-07-31T03:38:46;100630.97;;;15.30;100.00
20909;BME280;10614;53.198;6.570;2023-07-31T03:40:48;100627.47;;;15.30;100.00
20909;BME280;10614;53.198;6.570;2023-07-31T03:42:49;100619.72;;;15.27;100.00
20909;BME280;10614;53.198;6.570;2023-07-31T03:44:51;100616.09;;;15.28;100.00
20909;BME280;10614;53.198;6.570;2023-07-31T03:46:54;100602.56;;;15.18;100.00
20909;BME280;10614;53.198;6.570;2023-07-31T03:48:56;100616.31;;;15.25;100.00
20909;BME280;10614;53.198;6.570;2023-07-31T03:50:59;100614.50;;;15.25;100.00
20909;BME280;10614;53.198;6.570;2023-07-31T03:53:02;100611.84;;;15.25;100.00
20909;BME280;10614;53.198;6.570;2023-07-31T03:55:05;100607.38;;;15.26;100.00
20909;BME280;10614;53.198;6.570;2023-07-31T03:57:07;100607.38;;;15.26;100.00
20909;BME280;10614;53.198;6.570;2023-07-31T03:59:08;100602.06;;;15.26;100.00
20909;BME280;10614;53.198;6.570;2023-07-31T04:01:10;100597.81;;;15.23;100.00
20909;BME280;10614;53.198;6.570;2023-07-31T04:03:12;100600.28;;;15.26;100.00
20909;BME280;10614;53.198;6.570;2023-07-31T04:05:13;100595.25;;;15.22;100.00
20909;BME280;10614;53.198;6.570;2023-07-31T04:07:14;100585.69;;;15.19;100.00
20909;BME280;10614;53.198;6.570;2023-07-31T04:09:20;100603.13;;;15.23;100.00
20909;BME280;10614;53.198;6.570;2023-07-31T04:11:22;100602.28;;;15.23;100.00
20909;BME280;10614;53.198;6.570;2023-07-31T04:13:24;100598.66;;;15.24;100.00
20909;BME280;10614;53.198;6.570;2023-07-31T04:15:28;100584.09;;;15.16;100.00
20909;BME280;10614;53.198;6.570;2023-07-31T04:17:29;100593.19;;;15.27;100.00
20909;BME280;10614;53.198;6.570;2023-07-31T04:19:32;100586.16;;;15.26;100.00
20909;BME280;10614;53.198;6.570;2023-07-31T04:21:34;100575.09;;;15.19;100.00
20909;BME280;10614;53.198;6.570;2023-07-31T04:23:40;100584.28;;;15.28;100.00
20909;BME280;10614;53.198;6.570;2023-07-31T04:25:43;100579.66;;;15.31;100.00
20909;BME280;10614;53.198;6.570;2023-07-31T04:27:44;100583.97;;;15.32;100.00
20909;BME280;10614;53.198;6.570;2023-07-31T04:29:46;100570.25;;;15.26;100.00
20909;BME280;10614;53.198;6.570;2023-07-31T04:31:48;100563.06;;;15.28;100.00
20909;BME280;10614;53.198;6.570;2023-07-31T04:33:50;100580.94;;;15.38;100.00
20909;BME280;10614;53.198;6.570;2023-07-31T04:35:52;100583.47;;;15.40;100.00
20909;BME280;10614;53.198;6.570;2023-07-31T04:37:55;100585.19;;;15.41;100.00
20909;BME280;10614;53.198;6.570;2023-07-31T04:40:01;100562.84;;;15.31;100.00
20909;BME280;10614;53.198;6.570;2023-07-31T04:42:04;100563.59;;;15.33;100.00
20909;BME280;10614;53.198;6.570;2023-07-31T04:44:06;100580.66;;;15.43;100.00
20909;BME280;10614;53.198;6.570;2023-07-31T04:46:09;100573.63;;;15.42;100.00
20909;BME280;10614;53.198;6.570;2023-07-31T04:48:11;100573.84;;;15.39;100.00
20909;BME280;10614;53.198;6.570;2023-07-31T04:50:12;100582.13;;;15.47;100.00
20909;BME280;10614;53.198;6.570;2023-07-31T04:52:14;100576.06;;;15.45;100.00
20909;BME280;10614;53.198;6.570;2023-07-31T04:54:16;100564.81;;;15.41;100.00
20909;BME280;10614;53.198;6.570;2023-07-31T04:56:18;100579.69;;;15.44;100.00
20909;BME280;10614;53.198;6.570;2023-07-31T04:58:21;100577.72;;;15.48;100.00
20909;BME280;10614;53.198;6.570;2023-07-31T05:00:23;100563.69;;;15.46;100.00
20909;BME280;10614;53.198;6.570;2023-07-31T05:02:25;100572.19;;;15.51;100.00
20909;BME280;10614;53.198;6.570;2023-07-31T05:04:27;100568.69;;;15.50;100.00
20909;BME280;10614;53.198;6.570;2023-07-31T05:06:28;100556.66;;;15.45;100.00
20909;BME280;10614;53.198;6.570;2023-07-31T05:08:29;100558.25;;;15.47;100.00
20909;BME280;10614;53.198;6.570;2023-07-31T05:10:31;100561.50;;;15.52;100.00
20909;BME280;10614;53.198;6.570;2023-07-31T05:12:33;100561.66;;;15.49;100.00
20909;BME280;10614;53.198;6.570;2023-07-31T05:14:37;100545.28;;;15.43;100.00
20909;BME280;10614;53.198;6.570;2023-07-31T05:16:40;100560.63;;;15.52;100.00
20909;BME280;10614;53.198;6.570;2023-07-31T05:18:43;100553.25;;;15.43;100.00
20909;BME280;10614;53.198;6.570;2023-07-31T05:20:47;100558.69;;;15.41;100.00
20909;BME280;10614;53.198;6.570;2023-07-31T05:22:49;100572.50;;;15.46;100.00
20909;BME280;10614;53.198;6.570;2023-07-31T05:24:53;100557.63;;;15.44;100.00
20909;BME280;10614;53.198;6.570;2023-07-31T05:26:56;100544.44;;;15.42;100.00
20909;BME280;10614;53.198;6.570;2023-07-31T05:28:58;100551.28;;;15.46;100.00
20909;BME280;10614;53.198;6.570;2023-07-31T05:31:01;100555.72;;;15.46;100.00
20909;BME280;10614;53.198;6.570;2023-07-31T05:33:04;100547.22;;;15.40;100.00
20909;BME280;10614;53.198;6.570;2023-07-31T05:35:13;100559.13;;;15.48;100.00
20909;BME280;10614;53.198;6.570;2023-07-31T05:37:15;100557.31;;;15.48;100.00
20909;BME280;10614;53.198;6.570;2023-07-31T05:39:16;100554.69;;;15.48;100.00
20909;BME280;10614;53.198;6.570;2023-07-31T05:41:20;100559.22;;;15.46;100.00
20909;BME280;10614;53.198;6.570;2023-07-31T05:43:21;100542.47;;;15.46;100.00
20909;BME280;10614;53.198;6.570;2023-07-31T05:45:23;100544.81;;;15.50;100.00
20909;BME280;10614;53.198;6.570;2023-07-31T05:47:25;100538.75;;;15.48;100.00
20909;BME280;10614;53.198;6.570;2023-07-31T05:49:27;100541.81;;;15.42;100.00
20909;BME280;10614;53.198;6.570;2023-07-31T05:51:29;100523.84;;;15.33;100.00
20909;BME280;10614;53.198;6.570;2023-07-31T05:53:31;100502.88;;;15.15;100.00
20909;BME280;10614;53.198;6.570;2023-07-31T05:55:32;100539.75;;;15.33;100.00
20909;BME280;10614;53.198;6.570;2023-07-31T05:57:34;100519.59;;;15.30;100.00
20909;BME280;10614;53.198;6.570;2023-07-31T05:59:36;100529.56;;;15.27;100.00
20909;BME280;10614;53.198;6.570;2023-07-31T06:01:38;100523.06;;;15.31;100.00
20909;BME280;10614;53.198;6.570;2023-07-31T06:03:41;100511.09;;;15.25;100.00
20909;BME280;10614;53.198;6.570;2023-07-31T06:05:43;100511.94;;;15.26;100.00
20909;BME280;10614;53.198;6.570;2023-07-31T06:07:45;100522.91;;;15.34;100.00
20909;BME280;10614;53.198;6.570;2023-07-31T06:09:46;100512.97;;;15.23;100.00
20909;BME280;10614;53.198;6.570;2023-07-31T06:11:50;100516.09;;;15.30;100.00
20909;BME280;10614;53.198;6.570;2023-07-31T06:13:53;100497.81;;;15.25;100.00
20909;BME280;10614;53.198;6.570;2023-07-31T06:15:55;100519.81;;;15.40;100.00
20909;BME280;10614;53.198;6.570;2023-07-31T06:17:57;100516.25;;;15.41;100.00
20909;BME280;10614;53.198;6.570;2023-07-31T06:20:05;100521.53;;;15.41;100.00
20909;BME280;10614;53.198;6.570;2023-07-31T06:22:07;100501.88;;;15.31;100.00
20909;BME280;10614;53.198;6.570;2023-07-31T06:24:09;100510.09;;;15.40;100.00
20909;BME280;10614;53.198;6.570;2023-07-31T06:26:12;100512.00;;;15.38;100.00
20909;BME280;10614;53.198;6.570;2023-07-31T06:28:14;100514.53;;;15.40;100.00
20909;BME280;10614;53.198;6.570;2023-07-31T06:30:17;100513.06;;;15.49;100.00
20909;BME280;10614;53.198;6.570;2023-07-31T06:32:19;100506.72;;;15.51;100.00
20909;BME280;10614;53.198;6.570;2023-07-31T06:34:21;100499.72;;;15.50;100.00
20909;BME280;10614;53.198;6.570;2023-07-31T06:36:24;100515.13;;;15.58;100.00
20909;BME280;10614;53.198;6.570;2023-07-31T06:38:26;100508.75;;;15.60;100.00
20909;BME280;10614;53.198;6.570;2023-07-31T06:40:30;100507.41;;;15.68;100.00
20909;BME280;10614;53.198;6.570;2023-07-31T06:42:32;100490.84;;;15.64;100.00
20909;BME280;10614;53.198;6.570;2023-07-31T06:44:33;100502.16;;;15.80;100.00
20909;BME280;10614;53.198;6.570;2023-07-31T06:46:35;100491.25;;;15.85;100.00
20909;BME280;10614;53.198;6.570;2023-07-31T06:48:40;100478.69;;;15.87;100.00
20909;BME280;10614;53.198;6.570;2023-07-31T06:50:44;100475.75;;;16.04;100.00
20909;BME280;10614;53.198;6.570;2023-07-31T06:52:47;100465.25;;;16.16;100.00
20909;BME280;10614;53.198;6.570;2023-07-31T06:55:01;100479.59;;;16.39;100.00
20909;BME280;10614;53.198;6.570;2023-07-31T06:57:04;100492.00;;;16.51;100.00
20909;BME280;10614;53.198;6.570;2023-07-31T06:59:06;100466.50;;;16.49;100.00
20909;BME280;10614;53.198;6.570;2023-07-31T07:01:08;100484.00;;;16.64;100.00
20909;BME280;10614;53.198;6.570;2023-07-31T07:03:12;100485.06;;;16.74;100.00
20909;BME280;10614;53.198;6.570;2023-07-31T07:05:24;100480.91;;;16.70;100.00
20909;BME280;10614;53.198;6.570;2023-07-31T07:07:26;100463.72;;;16.63;100.00
20909;BME280;10614;53.198;6.570;2023-07-31T07:09:30;100482.50;;;16.73;100.00
20909;BME280;10614;53.198;6.570;2023-07-31T07:11:32;100466.25;;;16.64;100.00
20909;BME280;10614;53.198;6.570;2023-07-31T07:13:34;100448.72;;;16.62;100.00
20909;BME280;10614;53.198;6.570;2023-07-31T07:15:37;100467.16;;;16.76;100.00
20909;BME280;10614;53.198;6.570;2023-07-31T07:17:39;100459.19;;;16.76;100.00
20909;BME280;10614;53.198;6.570;2023-07-31T07:19:40;100464.13;;;16.70;100.00
20909;BME280;10614;53.198;6.570;2023-07-31T07:21:45;100447.97;;;16.60;100.00
20909;BME280;10614;53.198;6.570;2023-07-31T07:23:47;100454.75;;;16.64;100.00
20909;BME280;10614;53.198;6.570;2023-07-31T07:25:51;100458.91;;;16.68;100.00
20909;BME280;10614;53.198;6.570;2023-07-31T07:27:54;100455.50;;;16.66;100.00
20909;BME280;10614;53.198;6.570;2023-07-31T07:29:56;100445.75;;;16.54;100.00
20909;BME280;10614;53.198;6.570;2023-07-31T07:31:58;100448.53;;;16.52;100.00
20909;BME280;10614;53.198;6.570;2023-07-31T07:34:01;100460.88;;;16.53;100.00
20909;BME280;10614;53.198;6.570;2023-07-31T07:36:05;100458.53;;;16.49;100.00
20909;BME280;10614;53.198;6.570;2023-07-31T07:38:10;100448.56;;;16.39;100.00
20909;BME280;10614;53.198;6.570;2023-07-31T07:40:12;100438.25;;;16.35;100.00
20909;BME280;10614;53.198;6.570;2023-07-31T07:42:17;100446.00;;;16.38;100.00
20909;BME280;10614;53.198;6.570;2023-07-31T07:44:20;100439.50;;;16.29;100.00
20909;BME280;10614;53.198;6.570;2023-07-31T07:46:23;100441.97;;;16.32;100.00
20909;BME280;10614;53.198;6.570;2023-07-31T07:48:25;100437.09;;;16.26;100.00
20909;BME280;10614;53.198;6.570;2023-07-31T07:50:27;100437.59;;;16.31;100.00
20909;BME280;10614;53.198;6.570;2023-07-31T07:52:28;100430.28;;;16.22;100.00
20909;BME280;10614;53.198;6.570;2023-07-31T07:54:31;100450.28;;;16.28;100.00
20909;BME280;10614;53.198;6.570;2023-07-31T07:56:33;100408.84;;;16.12;100.00
20909;BME280;10614;53.198;6.570;2023-07-31T07:58:37;100419.56;;;16.11;100.00
20909;BME280;10614;53.198;6.570;2023-07-31T08:00:39;100442.31;;;16.28;100.00
20909;BME280;10614;53.198;6.570;2023-07-31T08:02:41;100447.81;;;16.24;100.00
20909;BME280;10614;53.198;6.570;2023-07-31T08:04:43;100435.72;;;16.20;100.00
20909;BME280;10614;53.198;6.570;2023-07-31T08:06:46;100412.47;;;16.11;100.00
20909;BME280;10614;53.198;6.570;2023-07-31T08:08:50;100406.97;;;16.01;100.00
20909;BME280;10614;53.198;6.570;2023-07-31T08:10:52;100428.38;;;16.24;100.00
20909;BME280;10614;53.198;6.570;2023-07-31T08:12:54;100438.38;;;16.20;100.00
20909;BME280;10614;53.198;6.570;2023-07-31T08:14:57;100432.00;;;16.23;100.00
20909;BME280;10614;53.198;6.570;2023-07-31T08:17:00;100397.38;;;16.12;100.00
20909;BME280;10614;53.198;6.570;2023-07-31T08:19:02;100406.50;;;16.20;100.00
20909;BME280;10614;53.198;6.570;2023-07-31T08:21:04;100386.34;;;16.18;100.00
20909;BME280;10614;53.198;6.570;2023-07-31T08:23:06;100391.19;;;16.24;100.00
20909;BME280;10614;53.198;6.570;2023-07-31T08:25:08;100389.50;;;16.23;100.00
20909;BME280;10614;53.198;6.570;2023-07-31T08:27:10;100400.00;;;16.37;100.00
20909;BME280;10614;53.198;6.570;2023-07-31T08:29:12;100400.41;;;16.44;100.00
20909;BME280;10614;53.198;6.570;2023-07-31T08:31:16;100381.91;;;16.42;100.00
20909;BME280;10614;53.198;6.570;2023-07-31T08:33:20;100375.31;;;16.48;100.00
20909;BME280;10614;53.198;6.570;2023-07-31T08:35:25;100360.00;;;16.52;100.00
20909;BME280;10614;53.198;6.570;2023-07-31T08:37:50;100371.53;;;16.63;100.00
20909;BME280;10614;53.198;6.570;2023-07-31T08:40:26;100364.41;;;16.64;100.00
20909;BME280;10614;53.198;6.570;2023-07-31T08:43:02;100369.50;;;16.80;100.00
20909;BME280;10614;53.198;6.570;2023-07-31T08:45:20;100353.72;;;16.90;100.00
20909;BME280;10614;53.198;6.570;2023-07-31T08:47:23;100361.91;;;17.11;100.00
20909;BME280;10614;53.198;6.570;2023-07-31T08:49:26;100364.84;;;17.19;100.00
20909;BME280;10614;53.198;6.570;2023-07-31T08:51:33;100376.63;;;17.39;100.00
20909;BME280;10614;53.198;6.570;2023-07-31T08:53:37;100364.75;;;17.32;100.00
20909;BME280;10614;53.198;6.570;2023-07-31T08:55:40;100389.97;;;17.50;100.00
20909;BME280;10614;53.198;6.570;2023-07-31T08:58:30;100388.28;;;17.49;100.00
20909;BME280;10614;53.198;6.570;2023-07-31T09:20:19;100366.13;;;17.48;100.00
20909;BME280;10614;53.198;6.570;2023-07-31T09:22:53;100359.34;;;17.44;100.00
20909;BME280;10614;53.198;6.570;2023-07-31T09:25:19;100341.53;;;17.34;100.00
20909;BME280;10614;53.198;6.570;2023-07-31T09:27:47;100347.59;;;17.36;100.00
20909;BME280;10614;53.198;6.570;2023-07-31T09:30:09;100345.53;;;17.39;100.00
20909;BME280;10614;53.198;6.570;2023-07-31T09:32:36;100372.06;;;17.52;100.00
20909;BME280;10614;53.198;6.570;2023-07-31T09:34:58;100346.13;;;17.32;100.00
20909;BME280;10614;53.198;6.570;2023-07-31T09:40:08;100378.44;;;17.38;100.00
20909;BME280;10614;53.198;6.570;2023-07-31T09:42:26;100353.50;;;17.28;100.00
20909;BME280;10614;53.198;6.570;2023-07-31T09:44:43;100338.16;;;17.32;100.00
20909;BME280;10614;53.198;6.570;2023-07-31T09:47:12;100334.06;;;17.39;100.00
20909;BME280;10614;53.198;6.570;2023-07-31T09:49:26;100327.53;;;17.43;100.00
20909;BME280;10614;53.198;6.570;2023-07-31T09:51:55;100337.00;;;17.47;100.00
20909;BME280;10614;53.198;6.570;2023-07-31T09:54:18;100323.28;;;17.29;100.00
20909;BME280;10614;53.198;6.570;2023-07-31T11:18:04;100294.09;;;17.97;100.00
20909;BME280;10614;53.198;6.570;2023-07-31T11:20:09;100304.00;;;18.17;100.00
20909;BME280;10614;53.198;6.570;2023-07-31T11:22:11;100303.34;;;18.36;100.00
20909;BME280;10614;53.198;6.570;2023-07-31T11:24:13;100272.34;;;18.24;100.00
20909;BME280;10614;53.198;6.570;2023-07-31T11:26:14;100269.84;;;18.22;100.00
20909;BME280;10614;53.198;6.570;2023-07-31T11:28:17;100319.56;;;18.33;100.00
20909;BME280;10614;53.198;6.570;2023-07-31T11:30:19;100314.88;;;18.25;100.00
20909;BME280;10614;53.198;6.570;2023-07-31T11:32:20;100279.69;;;17.99;100.00
20909;BME280;10614;53.198;6.570;2023-07-31T11:34:26;100272.69;;;17.87;100.00
20909;BME280;10614;53.198;6.570;2023-07-31T12:11:02;100312.13;;;17.82;100.00
20909;BME280;10614;53.198;6.570;2023-07-31T12:13:07;100301.59;;;17.91;100.00
20909;BME280;10614;53.198;6.570;2023-07-31T12:15:15;100272.41;;;17.79;100.00
20909;BME280;10614;53.198;6.570;2023-07-31T12:17:17;100243.13;;;17.67;100.00
20909;BME280;10614;53.198;6.570;2023-07-31T12:43:17;100321.44;;;18.65;100.00
20909;BME280;10614;53.198;6.570;2023-07-31T12:48:28;100306.75;;;18.82;100.00
20909;BME280;10614;53.198;6.570;2023-07-31T12:50:30;100314.06;;;19.01;100.00
20909;BME280;10614;53.198;6.570;2023-07-31T12:52:31;100297.81;;;19.04;100.00
20909;BME280;10614;53.198;6.570;2023-07-31T12:55:00;100313.94;;;19.23;100.00
20909;BME280;10614;53.198;6.570;2023-07-31T13:10:43;100326.97;;;18.41;100.00
20909;BME280;10614;53.198;6.570;2023-07-31T13:12:45;100307.72;;;18.26;100.00
20909;BME280;10614;53.198;6.570;2023-07-31T13:14:46;100293.56;;;18.14;100.00
20909;BME280;10614;53.198;6.570;2023-07-31T13:16:47;100302.91;;;18.20;100.00
20909;BME280;10614;53.198;6.570;2023-07-31T13:18:49;100298.50;;;18.30;100.00
20909;BME280;10614;53.198;6.570;2023-07-31T13:20:53;100307.22;;;18.43;100.00
20909;BME280;10614;53.198;6.570;2023-07-31T13:22:55;100271.38;;;18.36;100.00
20909;BME280;10614;53.198;6.570;2023-07-31T13:24:57;100270.78;;;18.32;100.00
20909;BME280;10614;53.198;6.570;2023-07-31T13:27:00;100264.00;;;18.28;100.00
20909;BME280;10614;53.198;6.570;2023-07-31T13:29:01;100288.03;;;18.49;100.00
20909;BME280;10614;53.198;6.570;2023-07-31T13:31:03;100251.91;;;18.35;100.00
20909;BME280;10614;53.198;6.570;2023-07-31T13:33:05;100286.97;;;18.52;100.00
20909;BME280;10614;53.198;6.570;2023-07-31T13:35:08;100305.72;;;18.62;100.00
20909;BME280;10614;53.198;6.570;2023-07-31T13:37:11;100260.59;;;18.38;100.00
20909;BME280;10614;53.198;6.570;2023-07-31T13:39:13;100276.16;;;18.53;100.00
20909;BME280;10614;53.198;6.570;2023-07-31T13:41:15;100307.94;;;18.89;100.00